Spot Road, Arizona (BMGR) Weather observations

Data are for 10 minute period ending at time listed.
 Day   Time   Solar   Ave.   Ave.  Ave.  Vector  Max.   Total    
  of    of     Rad.   Air    Rel.  Wind   Wind   Wind  Precip.   
Year   Day            Temp.  Hum.  Speed  Dir.   Gust            
2026   (MST)  Kw/m2    F      %     mph   deg.    mph    in.     
-----------------------------------------------------------------
 127    4:35   0.00   67.7    30   10.6   261    12.7    0.00 
 127    4:40   0.00   67.4    30    7.9   248    12.1    0.00 
 127    4:45   0.00   67.7    30    6.7   248     8.8    0.00 
 127    4:50   0.00   68.1    30    5.4   242     7.1    0.00 
 127    4:55   0.00   67.7    30    3.7   226     4.9    0.00 
 127    5:00   0.00   67.6    30    2.9   214     4.3    0.00 
 127    5:05   0.00   67.8    30    1.1   214     3.2    0.00 
 127    5:10   0.00   67.0    30    1.6    85     3.8    0.00 
 127    5:15   0.00   66.6    31    1.4    86     3.2    0.00 
 127    5:20   0.00   67.0    31    0.0     0     0.0    0.00 
 127    5:25   0.00   67.1    31    1.0    13     2.6    0.00 
 127    5:30   0.00   66.5    31    1.1    42     2.1    0.00 
 127    5:35   0.00   66.2    32    0.6    44     2.1    0.00 
 127    5:40   0.00   66.4    31    0.2    44     2.1    0.00 
 127    5:45   0.01   66.0    31    0.6    44     2.1    0.00 
 127    5:50   0.01   66.0    31    0.0     0     0.0    0.00 
 127    5:55   0.02   66.3    31    0.0     0     0.0    0.00 
 127    6:00   0.03   66.7    31    0.0     0     0.0    0.00 
 127    6:05   0.04   66.9    31    0.0     0     0.0    0.00 
 127    6:10   0.05   67.2    31    0.0     0     0.0    0.00 
 127    6:15   0.06   67.7    31    0.0     0     0.0    0.00 
 127    6:20   0.08   68.5    30    0.0     0     0.0    0.00 
 127    6:25   0.09   68.8    30    0.0     0     0.0    0.00 
 127    6:30   0.10   69.0    29    0.0     0     0.0    0.00 
 127    6:35   0.12   69.5    29    0.0     0     0.0    0.00 
 127    6:40   0.13   70.0    28    0.0     0     0.0    0.00 
 127    6:45   0.14   69.0    28    0.9    51     3.2    0.00 
 127    6:50   0.16   65.6    26    3.3    80     4.3    0.00 
 127    6:55   0.17   64.6    25    3.2    94     4.3    0.00 
 127    7:00   0.19   64.8    25    4.1    98     5.4    0.00 
 127    7:05   0.21   65.2    25    5.5   107     7.1    0.00 
 127    7:10   0.22   65.7    24    5.9   105     7.1    0.00 
 127    7:15   0.24   66.8    24    4.3   103     5.4    0.00 
 127    7:20   0.25   67.5    25    3.6   120     4.9    0.00 
 127    7:25   0.27   68.6    25    2.9   134     3.8    0.00 
 127    7:30   0.29   69.8    26    0.3   144     2.6    0.00 
 127    7:35   0.30   70.5    27    0.6   219     3.8    0.00 
 127    7:40   0.32   70.9    28    3.8   233     6.0    0.00 
 127    7:45   0.33   71.1    27    4.4   241     5.4    0.00 
 127    7:50   0.35   71.5    27    4.5   221     7.1    0.00 
 127    7:55   0.37   72.2    26    5.1   219     7.1    0.00 
 127    8:00   0.38   72.7    26    5.6   215     7.1    0.00 
 127    8:05   0.40   73.2    26    5.8   252     8.2    0.00 
 127    8:10   0.42   73.9    25    4.9   246     7.1    0.00 
 127    8:15   0.43   74.4    25    4.1   241     6.5    0.00 
 127    8:20   0.45   74.8    25    4.5   257     6.5    0.00 
 127    8:25   0.46   75.2    24    4.5   254     8.2    0.00 
 127    8:30   0.48   75.2    24    3.8   250     6.0    0.00 
 127    8:35   0.49   75.3    24    3.7   235     6.0    0.00 
 127    8:40   0.51   76.1    24    3.1   322     8.2    0.00 
 127    8:45   0.53   76.7    24    4.6   308     7.1    0.00 
 127    8:50   0.54   76.6    24    3.3   274     6.0    0.00 
 127    8:55   0.56   77.6    23    5.6   352     8.2    0.00 
 127    9:00   0.57   77.2    24    3.7   330     7.7    0.00 
 127    9:05   0.58   78.2    23    2.2   290     4.9    0.00 
 127    9:10   0.60   78.2    24    3.1   302     5.4    0.00 
 127    9:15   0.61   77.9    24    3.3   280     6.5    0.00 
 127    9:20   0.63   77.6    25    4.3   256     7.7    0.00 
 127    9:25   0.64   78.2    25    5.9   252     8.8    0.00 
 127    9:30   0.65   78.2    25    7.5   249    10.5    0.00 
 127    9:35   0.66   78.3    25    7.7   265    11.0    0.00 
 127    9:40   0.68   79.1    24    7.5   270    11.0    0.00 
 127    9:45   0.69   80.2    23    8.2   264    11.6    0.00 
 127    9:50   0.70   80.1    22    8.0   275    11.6    0.00 
 127    9:55   0.71   81.2    22    7.3   283    10.5    0.00 
 127   10:00   0.73   81.2    22    7.1   278    10.5    0.00 
 127   10:05   0.74   81.7    21    7.7   262    14.4    0.00 
 127   10:10   0.75   82.4    20    7.1   294    11.0    0.00 
 127   10:15   0.76   83.2    20    7.0   282    12.1    0.00 
 127   10:20   0.77   82.6    20    7.8   268    12.1    0.00 
 127   10:25   0.78   84.0    18    7.4   308    12.1    0.00 
 127   10:30   0.79   83.0    19    7.6   315    12.1    0.00 
 127   10:35   0.80   83.9    19    7.6   321    13.3    0.00 
 127   10:40   0.81   83.4    19    7.2   340    13.3    0.00 
 127   10:45   0.81   84.1    19    7.7   315    12.1    0.00 
 127   10:50   0.82   84.5    18    8.6   312    14.9    0.00 
 127   10:55   0.83   83.9    18    7.2   319    13.3    0.00 
 127   11:00   0.84   84.7    18    7.1   299    12.7    0.00 
 127   11:05   0.85   85.4    18    5.4   283     9.3    0.00 
 127   11:10   0.85   85.5    17    6.1   301    11.0    0.00 
 127   11:15   0.86   85.7    17    8.7   324    13.3    0.00 
 127   11:20   0.87   85.6    17    8.5   297    13.3    0.00 
 127   11:25   0.87   85.8    17    7.8   306    16.0    0.00 
 127   11:30   0.88   86.7    16    5.0   261    13.3    0.00 
 127   11:35   0.88   86.6    16    7.3   291    12.7    0.00 
 127   11:40   0.89   86.8    16    6.5   279    14.4    0.00 
 127   11:45   0.89   87.0    16    7.7   343    12.1    0.00 
 127   11:50   0.90   88.4    15    5.9   288    11.6    0.00 
 127   11:55   0.90   87.5    16   10.7   253    14.9    0.00 
 127   12:00   0.90   87.8    16   11.8   280    16.6    0.00 
 127   12:05   0.91   87.5    16    9.0   280    15.5    0.00 
 127   12:10   0.91   87.6    16    7.9   287    17.7    0.00 
 127   12:15   0.91   87.1    16    9.6   247    16.0    0.00 
 127   12:20   0.91   88.1    15    7.8   246    14.9    0.00 
 127   12:25   0.91   89.5    15    8.7   278    14.4    0.00 
 127   12:30   0.91   89.2    15   10.2   233    14.4    0.00 
 127   12:35   0.91   88.9    15    5.5   258    10.5    0.00 
 127   12:40   0.91   89.5    15    7.5   279    12.1    0.00 
 127   12:45   0.91   89.7    15    8.2   254    13.3    0.00 
 127   12:50   0.91   89.8    14    6.0   256    10.5    0.00 
 127   12:55   0.91   89.6    14    3.3   250     9.9    0.00 
 127   13:00   0.90   89.7    15    9.0   245    15.5    0.00 
 127   13:05   0.90   89.8    14    9.2   236    14.4    0.00 
 127   13:10   0.90   89.8    14    7.3   217    12.7    0.00 
 127   13:15   0.90   90.0    14    7.4   223    12.1    0.00 
 127   13:20   0.89   89.8    14    7.3   254    10.5    0.00 
 127   13:25   0.89   90.3    14    5.2   289     8.8    0.00 
 127   13:30   0.89   90.6    14    4.0   293     8.2    0.00 
 127   13:35   0.88   90.5    14    6.3   228    10.5    0.00 
 127   13:40   0.88   91.3    13    3.9   181     6.5    0.00 
 127   13:45   0.87   92.4    13    4.7   198    11.0    0.00 
 127   13:50   0.87   93.1    12    6.8   219    10.5    0.00 
 127   13:55   0.86   91.8    13    6.1   223     9.3    0.00 
 127   14:00   0.85   92.5    13    8.0   257    14.9    0.00 
 127   14:05   0.85   92.7    12    7.0   249    12.7    0.00 
 127   14:10   0.84   92.2    12    6.1   301    11.6    0.00 
 127   14:15   0.83   93.5    12    6.3   242    10.5    0.00 
 127   14:20   0.83   92.4    12    5.3   237     9.9    0.00 
 127   14:25   0.82   93.7    12    8.1   251    11.0    0.00 
 127   14:30   0.81   92.8    12    5.8   250    12.7    0.00 
 127   14:35   0.80   92.6    12    5.3   254     9.9    0.00 
 127   14:40   0.79   93.0    12    4.0   162    12.1    0.00 
 127   14:45   0.78   93.0    12    7.2   204    12.1    0.00 
 127   14:50   0.77   94.0    12    3.7   310     8.2    0.00 
 127   14:55   0.75   93.4    12    5.3   294    11.0    0.00 
 127   15:00   0.74   93.3    11   10.1   353    17.2    0.00 
 127   15:05   0.73   92.5    11    9.7     4    16.6    0.00 
 127   15:10   0.72   92.6    11    6.4   349    12.1    0.00 
 127   15:15   0.71   93.6    11   11.2   324    17.7    0.00 
 127   15:20   0.70   92.6    11    7.4   327    14.9    0.00 
 127   15:25   0.69   93.1    11    3.4   340     7.7    0.00 
 127   15:30   0.67   93.6    11    2.0     9     4.3    0.00 
 127   15:35   0.66   93.8    11    5.5   213    12.1    0.00 
 127   15:40   0.65   95.0    11    3.7    29     7.1    0.00 
 127   15:45   0.64   94.5    11    5.8   333    11.6    0.00 
 127   15:50   0.62   94.3    10   13.3   274    21.6    0.00 
 127   15:55   0.61   93.8    11    9.3   272    14.4    0.00 
 127   16:00   0.59   93.7    11   10.0   256    14.4    0.00 
 127   16:05   0.58   93.7    10    5.1   198     8.2    0.00 
 127   16:10   0.56   93.8    10    3.9   194     7.1    0.00 
 127   16:15   0.55   94.4    10    4.3   215     8.8    0.00 
 127   16:20   0.53   94.6    11    3.8   234     8.8    0.00 
 127   16:25   0.52   94.7    11    7.2   230    12.1    0.00 
 127   16:30   0.50   94.5    11    7.6   229    12.7    0.00 
 127   16:35   0.49   95.5    10    7.9   283    23.9    0.00 
 127   16:40   0.47   95.4    10    8.4   286    14.9    0.00 
 127   16:45   0.46   94.6    10   10.7   297    16.6    0.00 
 127   16:50   0.44   93.7    10    8.8   358    14.9    0.00 
 127   16:55   0.42   94.2    10    9.6   308    14.9    0.00 
 127   17:00   0.41   93.6    10    5.9   345     9.3    0.00 
 127   17:05   0.39   94.3    10    7.4   272    13.3    0.00 
 127   17:10   0.38   94.1    10    9.0   290    17.2    0.00 
 127   17:15   0.36   93.6    10    5.6   298    11.6    0.00 
 127   17:20   0.34   94.5    10    8.9   252    12.7    0.00 
 127   17:25   0.33   94.6    10    5.4   291     8.2    0.00 
 127   17:30   0.31   94.1    10    3.5   298     7.7    0.00 
 127   17:35   0.29   94.4    10    5.8   293     9.9    0.00 
 127   17:40   0.28   94.3    10    4.6   292     9.3    0.00 
 127   17:45   0.26   95.9    10    5.4   262     8.2    0.00 
 127   17:50   0.25   95.3    10    5.0   267     8.2    0.00 
 127   17:55   0.23   94.7    10    4.8   246     9.3    0.00 
 127   18:00   0.21   95.0    10    4.9   242     7.1    0.00 
 127   18:05   0.20   95.6    10    4.9   268     7.1    0.00 
 127   18:10   0.18   94.7    10    4.2   289     6.5    0.00 
 127   18:15   0.16   94.6    10    5.0   292     8.2    0.00 
 127   18:20   0.15   95.2    10    4.6   275     7.7    0.00 
 127   18:25   0.13   95.1    10    3.2   253     6.0    0.00 
 127   18:30   0.12   94.6    10    9.3   214    12.7    0.00 
 127   18:35   0.11   94.3    11    8.2   214    12.7    0.00 
 127   18:40   0.09   93.9    11    9.9   208    12.7    0.00 
 127   18:45   0.08   93.6    11    9.1   207    11.6    0.00 
 127   18:50   0.06   93.6    11    8.1   214     9.9    0.00 
 127   18:55   0.05   93.4    12    8.2   223    11.0    0.00 
 127   19:00   0.04   93.3    11    6.6   206     8.8    0.00 
 127   19:05   0.03   92.8    12    8.9   201    11.6    0.00 
 127   19:10   0.02   92.3    12    8.2   203    10.5    0.00 
 127   19:15   0.01   91.9    12    8.1   202     9.3    0.00 
 127   19:20   0.01   91.5    12    8.0   202     9.3    0.00 
 127   19:25   0.00   91.4    12    7.5   205     9.3    0.00 
 127   19:30   0.00   91.2    12    6.6   200     8.8    0.00 
 127   19:35   0.00   90.8    12    6.1   196     7.1    0.00 
 127   19:40   0.00   90.5    12    7.8   198    10.5    0.00 
 127   19:45   0.00   89.9    13    8.4   202     9.9    0.00 
 127   19:50   0.00   89.4    13    8.9   204    10.5    0.00 
 127   19:55   0.00   89.1    14    8.7   200     9.9    0.00 
 127   20:00   0.00   89.1    14    8.9   196    10.5    0.00 
 127   20:05   0.00   89.0    14    9.1   196    10.5    0.00 
 127   20:10   0.00   88.8    14    9.4   195    11.0    0.00 
 127   20:15   0.00   88.6    14    9.9   197    11.0    0.00 
 127   20:20   0.00   88.2    14   10.4   196    12.1    0.00 
 127   20:25   0.00   88.0    14   10.3   196    11.6    0.00 
 127   20:30   0.00   88.1    14    9.8   194    11.6    0.00 
 127   20:35   0.00   87.8    15    8.7   193    10.5    0.00 
 127   20:40   0.00   87.4    15    8.9   193    10.5    0.00 
 127   20:45   0.00   87.1    15    9.1   190    11.0    0.00 
 127   20:50   0.00   86.7    15    8.9   187     9.9    0.00 
 127   20:55   0.00   86.7    15    8.7   184     9.9    0.00 
 127   21:00   0.00   86.6    15    9.5   182    11.0    0.00 
 127   21:05   0.00   87.0    15    9.4   183    10.5    0.00 
 127   21:10   0.00   87.1    15    9.2   180    10.5    0.00 
 127   21:15   0.00   87.3    15   10.4   184    12.7    0.00 
 127   21:20   0.00   87.2    15   10.8   187    12.1    0.00 
 127   21:25   0.00   86.6    15   10.2   183    12.1    0.00 
 127   21:30   0.00   86.8    15   10.0   184    12.7    0.00 
 127   21:35   0.00   86.5    15    9.4   182    10.5    0.00 
 127   21:40   0.00   86.4    15    9.7   185    11.0    0.00 
 127   21:45   0.00   86.4    15    9.3   189    11.0    0.00 
 127   21:50   0.00   86.6    15   10.0   190    11.6    0.00 
 127   21:55   0.00   86.4    15   10.6   191    12.7    0.00 
 127   22:00   0.00   85.9    15   11.1   189    13.8    0.00 
 127   22:05   0.00   85.7    15   11.2   189    13.3    0.00 
 127   22:10   0.00   85.9    15   10.7   193    12.7    0.00 
 127   22:15   0.00   85.6    15   10.3   196    11.0    0.00 
 127   22:20   0.00   85.7    15   10.9   194    12.1    0.00 
 127   22:25   0.00   85.6    15   11.5   194    12.7    0.00 
 127   22:30   0.00   85.5    15   11.6   194    13.3    0.00 
 127   22:35   0.00   85.4    15   11.0   194    12.1    0.00 
 127   22:40   0.00   85.2    15   10.6   192    12.7    0.00 
 127   22:45   0.00   84.8    15   10.5   191    13.3    0.00 
 127   22:50   0.00   85.0    15   11.1   190    13.3    0.00 
 127   22:55   0.00   85.0    14   12.1   189    13.8    0.00 
 127   23:00   0.00   85.1    14   12.2   192    14.4    0.00 
 127   23:05   0.00   85.1    14   12.5   191    14.4    0.00 
 127   23:10   0.00   85.2    14   12.3   189    14.9    0.00 
 127   23:15   0.00   85.2    14   12.7   184    15.5    0.00 
 127   23:20   0.00   85.0    14   12.2   182    14.4    0.00 
 127   23:25   0.00   84.6    14   12.0   177    13.8    0.00 
 127   23:30   0.00   84.3    14   11.7   170    13.8    0.00 
 127   23:35   0.00   84.3    15   11.3   146    13.3    0.00 
 127   23:40   0.00   79.9    23   13.7   108    17.2    0.00 
 127   23:45   0.00   77.7    27   13.4   113    15.5    0.00 
 127   23:50   0.00   77.3    28   13.1   119    15.5    0.00 
 127   23:55   0.00   76.8    29   12.8   120    14.9    0.00 
 128    0:00   0.00   76.6    30   13.0   124    15.5    0.00 
 128    0:05   0.00   76.7    30   13.8   126    17.2    0.00 
 128    0:10   0.00   77.0    30   14.0   125    16.6    0.00 
 128    0:15   0.00   77.1    31   14.2   122    16.6    0.00 
 128    0:20   0.00   76.7    32   14.5   122    16.6    0.00 
 128    0:25   0.00   76.7    32   14.5   122    16.6    0.00 
 128    0:30   0.00   76.4    32   14.5   119    17.2    0.00 
 128    0:35   0.00   76.2    32   15.3   118    18.3    0.00 
 128    0:40   0.00   76.1    33   15.8   119    19.4    0.00 
 128    0:45   0.00   76.0    33   15.4   120    18.9    0.00 
 128    0:50   0.00   75.8    33   15.4   118    18.9    0.00 
 128    0:55   0.00   75.6    34   16.3   119    19.4    0.00 
 128    1:00   0.00   75.5    34   16.9   119    19.4    0.00 
 128    1:05   0.00   75.3    34   16.7   119    21.1    0.00 
 128    1:10   0.00   75.2    34   14.8   119    17.2    0.00 
 128    1:15   0.00   75.0    35   14.2   116    17.7    0.00 
 128    1:20   0.00   74.8    35   12.9   114    15.5    0.00 
 128    1:25   0.00   74.7    35   11.7   115    14.4    0.00 
 128    1:30   0.00   74.6    35   11.7   112    15.5    0.00 
 128    1:35   0.00   74.3    35   11.6   115    14.9    0.00 
 128    1:40   0.00   74.3    35   12.1   115    14.9    0.00 
 128    1:45   0.00   74.4    34   12.9   114    15.5    0.00 
 128    1:50   0.00   74.2    34   11.7   119    14.4    0.00 
 128    1:55   0.00   74.0    35    9.2   118    12.1    0.00 
 128    2:00   0.00   73.8    35   11.7   116    14.9    0.00 
 128    2:05   0.00   73.6    35   12.1   115    16.0    0.00 
 128    2:10   0.00   73.7    34   11.7   119    15.5    0.00 
 128    2:15   0.00   73.5    35   11.4   122    13.8    0.00 
 128    2:20   0.00   73.4    35   11.6   121    14.4    0.00 
 128    2:25   0.00   73.3    35   11.2   119    13.3    0.00 
 128    2:30   0.00   73.1    35   11.6   117    13.8    0.00 
 128    2:35   0.00   72.9    35   10.1   114    12.1    0.00 
 128    2:40   0.00   72.8    35   10.6   114    12.1    0.00 
 128    2:45   0.00   72.4    35   10.8   112    13.3    0.00 
 128    2:50   0.00   72.3    35   11.8   111    13.8    0.00 
 128    2:55   0.00   72.2    35   12.3   114    14.4    0.00 
 128    3:00   0.00   72.1    35   12.9   115    15.5    0.00 
 128    3:05   0.00   71.8    36   12.8   115    14.9    0.00 
 128    3:10   0.00   71.7    36   12.4   116    14.9    0.00 
 128    3:15   0.00   71.7    35   13.1   111    15.5    0.00 
 128    3:20   0.00   71.6    35   12.9   108    14.9    0.00 
 128    3:25   0.00   71.5    35   13.0   109    16.0    0.00 
 128    3:30   0.00   71.5    35   12.4   109    14.9    0.00 
 128    3:35   0.00   71.5    35   12.8   107    15.5    0.00 
 128    3:40   0.00   71.5    35   13.7   107    16.6    0.00 
 128    3:45   0.00   71.7    35   13.6   109    16.0    0.00 
 128    3:50   0.00   72.0    34   12.3   111    14.9    0.00 
 128    3:55   0.00   72.2    34   11.5   108    13.8    0.00 
 128    4:00   0.00   72.2    34   11.3   108    14.4    0.00 
 128    4:05   0.00   72.3    34   11.6   109    14.4    0.00 
 128    4:10   0.00   72.3    34   12.4   111    14.4    0.00 
 128    4:15   0.00   72.4    34   12.7   110    15.5    0.00 
 128    4:20   0.00   72.4    34   13.6   110    15.5    0.00 
 128    4:25   0.00   72.2    34   13.7   109    16.6    0.00 
 128    4:30   0.00   72.0    34   13.4   108    16.0    0.00 

Return to Spot Road graphs page.


Western Regional Climate Center,wrcc@dri.edu